sensor_id;sensor_type;location;lat;lon;timestamp;P1;durP1;ratioP1;P2;durP2;ratioP2
77544;SDS011;66672;50.328;7.610;2023-08-20T00:00:39;13.75;;;8.88;;
77544;SDS011;66672;50.328;7.610;2023-08-20T00:03:10;11.70;;;9.40;;
77544;SDS011;66672;50.328;7.610;2023-08-20T00:05:36;12.73;;;8.98;;
77544;SDS011;66672;50.328;7.610;2023-08-20T00:08:01;13.85;;;9.00;;
77544;SDS011;66672;50.328;7.610;2023-08-20T00:10:27;12.73;;;10.10;;
77544;SDS011;66672;50.328;7.610;2023-08-20T00:12:52;16.53;;;9.83;;
77544;SDS011;66672;50.328;7.610;2023-08-20T00:15:17;14.82;;;10.25;;
77544;SDS011;66672;50.328;7.610;2023-08-20T00:17:44;13.73;;;8.88;;
77544;SDS011;66672;50.328;7.610;2023-08-20T00:20:10;13.05;;;8.60;;
77544;SDS011;66672;50.328;7.610;2023-08-20T00:22:37;16.20;;;9.50;;
77544;SDS011;66672;50.328;7.610;2023-08-20T00:25:03;15.18;;;10.85;;
77544;SDS011;66672;50.328;7.610;2023-08-20T00:27:30;15.00;;;9.65;;
77544;SDS011;66672;50.328;7.610;2023-08-20T00:29:55;12.27;;;9.15;;
77544;SDS011;66672;50.328;7.610;2023-08-20T00:32:20;15.20;;;9.27;;
77544;SDS011;66672;50.328;7.610;2023-08-20T00:34:46;13.85;;;10.07;;
77544;SDS011;66672;50.328;7.610;2023-08-20T00:37:11;12.13;;;8.93;;
77544;SDS011;66672;50.328;7.610;2023-08-20T00:39:37;14.25;;;9.73;;
77544;SDS011;66672;50.328;7.610;2023-08-20T00:42:02;12.15;;;9.45;;
77544;SDS011;66672;50.328;7.610;2023-08-20T00:44:27;15.85;;;9.68;;
77544;SDS011;66672;50.328;7.610;2023-08-20T00:46:53;14.50;;;10.18;;
77544;SDS011;66672;50.328;7.610;2023-08-20T00:49:18;13.63;;;9.10;;
77544;SDS011;66672;50.328;7.610;2023-08-20T00:51:43;16.65;;;9.40;;
77544;SDS011;66672;50.328;7.610;2023-08-20T00:54:08;12.00;;;9.25;;
77544;SDS011;66672;50.328;7.610;2023-08-20T00:56:34;12.95;;;8.75;;
77544;SDS011;66672;50.328;7.610;2023-08-20T00:58:59;12.73;;;8.35;;
77544;SDS011;66672;50.328;7.610;2023-08-20T01:01:25;14.40;;;8.98;;
77544;SDS011;66672;50.328;7.610;2023-08-20T01:03:50;13.02;;;8.43;;
77544;SDS011;66672;50.328;7.610;2023-08-20T01:06:23;11.68;;;8.52;;
77544;SDS011;66672;50.328;7.610;2023-08-20T01:08:53;11.90;;;7.60;;
77544;SDS011;66672;50.328;7.610;2023-08-20T01:11:24;11.25;;;8.52;;
77544;SDS011;66672;50.328;7.610;2023-08-20T01:13:53;12.48;;;8.45;;
77544;SDS011;66672;50.328;7.610;2023-08-20T01:16:19;11.73;;;8.15;;
77544;SDS011;66672;50.328;7.610;2023-08-20T01:18:44;15.82;;;8.63;;
77544;SDS011;66672;50.328;7.610;2023-08-20T01:29:09;13.13;;;8.07;;
77544;SDS011;66672;50.328;7.610;2023-08-20T01:31:35;10.13;;;7.75;;
77544;SDS011;66672;50.328;7.610;2023-08-20T01:34:00;13.80;;;7.85;;
77544;SDS011;66672;50.328;7.610;2023-08-20T01:36:26;11.88;;;7.65;;
77544;SDS011;66672;50.328;7.610;2023-08-20T01:38:51;13.23;;;7.95;;
77544;SDS011;66672;50.328;7.610;2023-08-20T01:41:16;13.07;;;7.82;;
77544;SDS011;66672;50.328;7.610;2023-08-20T01:43:41;14.90;;;7.72;;
77544;SDS011;66672;50.328;7.610;2023-08-20T01:46:07;10.63;;;7.90;;
77544;SDS011;66672;50.328;7.610;2023-08-20T01:48:32;11.48;;;7.97;;
77544;SDS011;66672;50.328;7.610;2023-08-20T01:50:57;16.35;;;8.02;;
77544;SDS011;66672;50.328;7.610;2023-08-20T01:53:22;11.67;;;7.80;;
77544;SDS011;66672;50.328;7.610;2023-08-20T01:55:47;18.83;;;8.80;;
77544;SDS011;66672;50.328;7.610;2023-08-20T01:58:13;13.52;;;9.10;;
77544;SDS011;66672;50.328;7.610;2023-08-20T02:00:38;11.57;;;8.95;;
77544;SDS011;66672;50.328;7.610;2023-08-20T02:03:03;13.50;;;9.65;;
77544;SDS011;66672;50.328;7.610;2023-08-20T02:05:28;14.98;;;9.32;;
77544;SDS011;66672;50.328;7.610;2023-08-20T02:07:54;14.35;;;9.38;;
77544;SDS011;66672;50.328;7.610;2023-08-20T02:10:19;14.90;;;8.90;;
77544;SDS011;66672;50.328;7.610;2023-08-20T02:12:44;12.80;;;9.15;;
77544;SDS011;66672;50.328;7.610;2023-08-20T02:15:09;12.98;;;8.80;;
77544;SDS011;66672;50.328;7.610;2023-08-20T02:17:36;11.40;;;9.02;;
77544;SDS011;66672;50.328;7.610;2023-08-20T02:20:01;11.80;;;8.63;;
77544;SDS011;66672;50.328;7.610;2023-08-20T02:22:28;13.85;;;9.95;;
77544;SDS011;66672;50.328;7.610;2023-08-20T02:24:54;14.52;;;10.50;;
77544;SDS011;66672;50.328;7.610;2023-08-20T02:27:19;14.68;;;10.18;;
77544;SDS011;66672;50.328;7.610;2023-08-20T02:29:45;13.57;;;9.27;;
77544;SDS011;66672;50.328;7.610;2023-08-20T02:32:10;13.38;;;9.48;;
77544;SDS011;66672;50.328;7.610;2023-08-20T02:34:35;12.27;;;10.27;;
77544;SDS011;66672;50.328;7.610;2023-08-20T02:37:00;14.07;;;10.05;;
77544;SDS011;66672;50.328;7.610;2023-08-20T02:39:26;16.47;;;10.27;;
77544;SDS011;66672;50.328;7.610;2023-08-20T02:41:51;15.80;;;9.57;;
77544;SDS011;66672;50.328;7.610;2023-08-20T02:44:16;14.93;;;10.40;;
77544;SDS011;66672;50.328;7.610;2023-08-20T02:46:41;16.20;;;11.05;;
77544;SDS011;66672;50.328;7.610;2023-08-20T02:49:09;13.45;;;9.63;;
77544;SDS011;66672;50.328;7.610;2023-08-20T02:51:34;17.02;;;9.82;;
77544;SDS011;66672;50.328;7.610;2023-08-20T02:53:59;16.67;;;10.63;;
77544;SDS011;66672;50.328;7.610;2023-08-20T02:56:25;14.23;;;9.53;;
77544;SDS011;66672;50.328;7.610;2023-08-20T02:58:50;12.87;;;9.87;;
77544;SDS011;66672;50.328;7.610;2023-08-20T03:01:18;15.00;;;9.63;;
77544;SDS011;66672;50.328;7.610;2023-08-20T03:03:44;13.55;;;9.77;;
77544;SDS011;66672;50.328;7.610;2023-08-20T03:06:09;13.17;;;9.17;;
77544;SDS011;66672;50.328;7.610;2023-08-20T03:08:34;13.63;;;9.25;;
77544;SDS011;66672;50.328;7.610;2023-08-20T03:10:59;11.40;;;9.23;;
77544;SDS011;66672;50.328;7.610;2023-08-20T03:13:24;17.27;;;9.67;;
77544;SDS011;66672;50.328;7.610;2023-08-20T03:15:50;12.90;;;9.40;;
77544;SDS011;66672;50.328;7.610;2023-08-20T03:18:15;12.20;;;9.80;;
77544;SDS011;66672;50.328;7.610;2023-08-20T03:20:40;13.37;;;9.43;;
77544;SDS011;66672;50.328;7.610;2023-08-20T03:23:05;12.80;;;9.57;;
77544;SDS011;66672;50.328;7.610;2023-08-20T03:25:30;11.82;;;9.35;;
77544;SDS011;66672;50.328;7.610;2023-08-20T03:27:55;13.15;;;9.70;;
77544;SDS011;66672;50.328;7.610;2023-08-20T03:30:21;13.95;;;10.05;;
77544;SDS011;66672;50.328;7.610;2023-08-20T03:32:46;14.05;;;9.95;;
77544;SDS011;66672;50.328;7.610;2023-08-20T03:35:11;12.80;;;9.47;;
77544;SDS011;66672;50.328;7.610;2023-08-20T03:37:36;14.48;;;10.07;;
77544;SDS011;66672;50.328;7.610;2023-08-20T03:40:01;16.13;;;10.60;;
77544;SDS011;66672;50.328;7.610;2023-08-20T03:42:29;13.90;;;9.55;;
77544;SDS011;66672;50.328;7.610;2023-08-20T03:44:55;15.82;;;10.93;;
77544;SDS011;66672;50.328;7.610;2023-08-20T03:47:20;14.20;;;10.93;;
77544;SDS011;66672;50.328;7.610;2023-08-20T03:49:46;16.63;;;10.60;;
77544;SDS011;66672;50.328;7.610;2023-08-20T03:52:12;17.83;;;11.60;;
77544;SDS011;66672;50.328;7.610;2023-08-20T03:54:37;13.50;;;10.33;;
77544;SDS011;66672;50.328;7.610;2023-08-20T03:57:02;12.50;;;9.98;;
77544;SDS011;66672;50.328;7.610;2023-08-20T03:59:27;14.27;;;11.00;;
77544;SDS011;66672;50.328;7.610;2023-08-20T04:01:52;13.75;;;10.73;;
77544;SDS011;66672;50.328;7.610;2023-08-20T04:04:18;15.23;;;10.87;;
77544;SDS011;66672;50.328;7.610;2023-08-20T04:06:43;13.50;;;10.63;;
77544;SDS011;66672;50.328;7.610;2023-08-20T04:09:08;16.67;;;11.87;;
77544;SDS011;66672;50.328;7.610;2023-08-20T04:11:34;19.75;;;11.63;;
77544;SDS011;66672;50.328;7.610;2023-08-20T04:13:59;16.98;;;12.65;;
77544;SDS011;66672;50.328;7.610;2023-08-20T04:16:24;18.40;;;14.98;;
77544;SDS011;66672;50.328;7.610;2023-08-20T04:18:50;20.13;;;14.38;;
77544;SDS011;66672;50.328;7.610;2023-08-20T04:21:15;18.70;;;14.77;;
77544;SDS011;66672;50.328;7.610;2023-08-20T04:23:40;19.77;;;12.37;;
77544;SDS011;66672;50.328;7.610;2023-08-20T04:26:06;19.98;;;12.00;;
77544;SDS011;66672;50.328;7.610;2023-08-20T04:28:32;15.00;;;11.63;;
77544;SDS011;66672;50.328;7.610;2023-08-20T04:30:57;15.70;;;10.77;;
77544;SDS011;66672;50.328;7.610;2023-08-20T04:33:22;13.57;;;10.80;;
77544;SDS011;66672;50.328;7.610;2023-08-20T04:35:51;16.37;;;11.00;;
77544;SDS011;66672;50.328;7.610;2023-08-20T04:38:16;15.68;;;10.93;;
77544;SDS011;66672;50.328;7.610;2023-08-20T04:40:41;16.60;;;11.33;;
77544;SDS011;66672;50.328;7.610;2023-08-20T04:43:06;16.42;;;11.75;;
77544;SDS011;66672;50.328;7.610;2023-08-20T04:45:31;19.10;;;12.80;;
77544;SDS011;66672;50.328;7.610;2023-08-20T04:47:57;18.00;;;12.20;;
77544;SDS011;66672;50.328;7.610;2023-08-20T04:50:22;16.65;;;11.95;;
77544;SDS011;66672;50.328;7.610;2023-08-20T04:52:47;19.67;;;12.88;;
77544;SDS011;66672;50.328;7.610;2023-08-20T04:55:12;20.00;;;13.00;;
77544;SDS011;66672;50.328;7.610;2023-08-20T04:57:37;23.65;;;14.73;;
77544;SDS011;66672;50.328;7.610;2023-08-20T05:00:03;21.80;;;14.13;;
77544;SDS011;66672;50.328;7.610;2023-08-20T05:02:28;22.90;;;15.45;;
77544;SDS011;66672;50.328;7.610;2023-08-20T05:04:53;22.48;;;13.82;;
77544;SDS011;66672;50.328;7.610;2023-08-20T05:07:18;20.03;;;14.03;;
77544;SDS011;66672;50.328;7.610;2023-08-20T05:09:44;19.43;;;13.47;;
77544;SDS011;66672;50.328;7.610;2023-08-20T05:12:09;16.13;;;11.98;;
77544;SDS011;66672;50.328;7.610;2023-08-20T05:14:34;15.05;;;12.38;;
77544;SDS011;66672;50.328;7.610;2023-08-20T05:16:59;17.05;;;12.70;;
77544;SDS011;66672;50.328;7.610;2023-08-20T05:19:25;16.58;;;11.88;;
77544;SDS011;66672;50.328;7.610;2023-08-20T05:21:50;16.20;;;11.63;;
77544;SDS011;66672;50.328;7.610;2023-08-20T05:24:15;19.27;;;12.73;;
77544;SDS011;66672;50.328;7.610;2023-08-20T05:26:40;16.25;;;12.20;;
77544;SDS011;66672;50.328;7.610;2023-08-20T05:29:05;16.50;;;12.35;;
77544;SDS011;66672;50.328;7.610;2023-08-20T05:31:31;16.17;;;12.68;;
77544;SDS011;66672;50.328;7.610;2023-08-20T05:33:56;16.60;;;12.98;;
77544;SDS011;66672;50.328;7.610;2023-08-20T05:36:22;24.17;;;14.40;;
77544;SDS011;66672;50.328;7.610;2023-08-20T05:38:47;21.77;;;14.75;;
77544;SDS011;66672;50.328;7.610;2023-08-20T05:41:12;21.17;;;15.55;;
77544;SDS011;66672;50.328;7.610;2023-08-20T05:43:38;23.25;;;15.88;;
77544;SDS011;66672;50.328;7.610;2023-08-20T05:46:03;26.17;;;16.55;;
77544;SDS011;66672;50.328;7.610;2023-08-20T05:48:28;21.42;;;16.38;;
77544;SDS011;66672;50.328;7.610;2023-08-20T05:50:54;23.80;;;16.20;;
77544;SDS011;66672;50.328;7.610;2023-08-20T05:53:19;25.90;;;16.88;;
77544;SDS011;66672;50.328;7.610;2023-08-20T05:55:44;22.05;;;16.38;;
77544;SDS011;66672;50.328;7.610;2023-08-20T05:58:09;22.23;;;16.07;;
77544;SDS011;66672;50.328;7.610;2023-08-20T06:00:35;30.02;;;19.25;;
77544;SDS011;66672;50.328;7.610;2023-08-20T06:03:00;31.75;;;20.52;;
77544;SDS011;66672;50.328;7.610;2023-08-20T06:05:25;33.03;;;20.63;;
77544;SDS011;66672;50.328;7.610;2023-08-20T06:07:50;36.22;;;21.65;;
77544;SDS011;66672;50.328;7.610;2023-08-20T06:10:16;38.30;;;21.67;;
77544;SDS011;66672;50.328;7.610;2023-08-20T06:12:41;38.03;;;22.38;;
77544;SDS011;66672;50.328;7.610;2023-08-20T06:15:07;35.77;;;22.63;;
77544;SDS011;66672;50.328;7.610;2023-08-20T06:17:32;41.38;;;23.35;;
77544;SDS011;66672;50.328;7.610;2023-08-20T06:19:57;39.63;;;22.90;;
77544;SDS011;66672;50.328;7.610;2023-08-20T06:22:23;37.63;;;22.73;;
77544;SDS011;66672;50.328;7.610;2023-08-20T06:24:48;38.15;;;21.60;;
77544;SDS011;66672;50.328;7.610;2023-08-20T06:27:13;31.97;;;20.97;;
77544;SDS011;66672;50.328;7.610;2023-08-20T06:29:38;41.75;;;23.80;;
77544;SDS011;66672;50.328;7.610;2023-08-20T06:32:04;42.85;;;24.08;;
77544;SDS011;66672;50.328;7.610;2023-08-20T06:34:29;47.80;;;26.02;;
77544;SDS011;66672;50.328;7.610;2023-08-20T06:36:54;43.35;;;24.98;;
77544;SDS011;66672;50.328;7.610;2023-08-20T06:39:19;51.30;;;25.73;;
77544;SDS011;66672;50.328;7.610;2023-08-20T06:41:45;43.47;;;23.60;;
77544;SDS011;66672;50.328;7.610;2023-08-20T06:44:10;49.53;;;24.90;;
77544;SDS011;66672;50.328;7.610;2023-08-20T06:46:35;46.63;;;25.10;;
77544;SDS011;66672;50.328;7.610;2023-08-20T06:49:00;44.67;;;25.88;;
77544;SDS011;66672;50.328;7.610;2023-08-20T06:51:25;55.85;;;27.10;;
77544;SDS011;66672;50.328;7.610;2023-08-20T06:53:52;64.57;;;27.98;;
77544;SDS011;66672;50.328;7.610;2023-08-20T06:56:17;50.00;;;26.88;;
77544;SDS011;66672;50.328;7.610;2023-08-20T06:58:43;56.13;;;26.03;;
77544;SDS011;66672;50.328;7.610;2023-08-20T07:01:08;50.13;;;25.33;;
77544;SDS011;66672;50.328;7.610;2023-08-20T07:03:40;46.53;;;25.65;;
77544;SDS011;66672;50.328;7.610;2023-08-20T07:06:05;47.93;;;26.53;;
77544;SDS011;66672;50.328;7.610;2023-08-20T07:08:31;52.42;;;27.60;;
77544;SDS011;66672;50.328;7.610;2023-08-20T07:10:56;46.00;;;24.90;;
77544;SDS011;66672;50.328;7.610;2023-08-20T07:13:22;47.08;;;26.58;;
77544;SDS011;66672;50.328;7.610;2023-08-20T07:15:47;46.47;;;25.40;;
77544;SDS011;66672;50.328;7.610;2023-08-20T07:18:12;45.97;;;24.83;;
77544;SDS011;66672;50.328;7.610;2023-08-20T07:20:39;43.85;;;25.15;;
77544;SDS011;66672;50.328;7.610;2023-08-20T07:23:04;43.50;;;23.87;;
77544;SDS011;66672;50.328;7.610;2023-08-20T07:25:30;38.97;;;22.53;;
77544;SDS011;66672;50.328;7.610;2023-08-20T07:27:55;40.50;;;24.23;;
77544;SDS011;66672;50.328;7.610;2023-08-20T07:30:24;40.00;;;23.95;;
77544;SDS011;66672;50.328;7.610;2023-08-20T07:32:49;34.90;;;23.25;;
77544;SDS011;66672;50.328;7.610;2023-08-20T07:35:14;35.43;;;22.20;;
77544;SDS011;66672;50.328;7.610;2023-08-20T07:37:39;33.70;;;21.38;;
77544;SDS011;66672;50.328;7.610;2023-08-20T07:40:05;35.30;;;22.85;;
77544;SDS011;66672;50.328;7.610;2023-08-20T07:42:30;33.78;;;20.83;;
77544;SDS011;66672;50.328;7.610;2023-08-20T07:44:55;34.50;;;21.07;;
77544;SDS011;66672;50.328;7.610;2023-08-20T07:47:20;34.58;;;23.00;;
77544;SDS011;66672;50.328;7.610;2023-08-20T07:49:45;34.13;;;21.23;;
77544;SDS011;66672;50.328;7.610;2023-08-20T07:52:11;31.13;;;20.17;;
77544;SDS011;66672;50.328;7.610;2023-08-20T07:54:36;28.60;;;18.43;;
77544;SDS011;66672;50.328;7.610;2023-08-20T07:57:01;27.48;;;18.48;;
77544;SDS011;66672;50.328;7.610;2023-08-20T07:59:26;27.00;;;18.90;;
77544;SDS011;66672;50.328;7.610;2023-08-20T08:01:52;34.42;;;19.30;;
77544;SDS011;66672;50.328;7.610;2023-08-20T08:04:17;26.25;;;17.90;;
77544;SDS011;66672;50.328;7.610;2023-08-20T08:06:42;28.27;;;17.92;;
77544;SDS011;66672;50.328;7.610;2023-08-20T08:09:18;25.77;;;17.88;;
77544;SDS011;66672;50.328;7.610;2023-08-20T08:11:44;29.00;;;18.30;;
77544;SDS011;66672;50.328;7.610;2023-08-20T08:14:09;28.80;;;18.50;;
77544;SDS011;66672;50.328;7.610;2023-08-20T08:16:36;25.85;;;17.35;;
77544;SDS011;66672;50.328;7.610;2023-08-20T08:19:01;26.00;;;18.43;;
77544;SDS011;66672;50.328;7.610;2023-08-20T08:21:27;23.92;;;16.60;;
77544;SDS011;66672;50.328;7.610;2023-08-20T08:23:52;23.85;;;15.95;;
77544;SDS011;66672;50.328;7.610;2023-08-20T08:26:17;23.77;;;16.70;;
77544;SDS011;66672;50.328;7.610;2023-08-20T08:28:42;25.97;;;17.93;;
77544;SDS011;66672;50.328;7.610;2023-08-20T08:31:08;28.30;;;17.73;;
77544;SDS011;66672;50.328;7.610;2023-08-20T08:33:33;28.27;;;17.75;;
77544;SDS011;66672;50.328;7.610;2023-08-20T08:35:58;26.40;;;18.20;;
77544;SDS011;66672;50.328;7.610;2023-08-20T08:38:23;25.38;;;18.58;;
77544;SDS011;66672;50.328;7.610;2023-08-20T08:40:48;29.40;;;17.85;;
77544;SDS011;66672;50.328;7.610;2023-08-20T08:43:14;31.27;;;19.50;;
77544;SDS011;66672;50.328;7.610;2023-08-20T08:45:42;26.05;;;18.23;;
77544;SDS011;66672;50.328;7.610;2023-08-20T08:48:08;23.60;;;17.60;;
77544;SDS011;66672;50.328;7.610;2023-08-20T08:50:33;25.38;;;16.83;;
77544;SDS011;66672;50.328;7.610;2023-08-20T08:52:58;27.57;;;17.27;;
77544;SDS011;66672;50.328;7.610;2023-08-20T08:55:24;22.77;;;16.60;;
77544;SDS011;66672;50.328;7.610;2023-08-20T08:57:49;20.65;;;15.15;;
77544;SDS011;66672;50.328;7.610;2023-08-20T09:00:14;22.50;;;15.90;;
77544;SDS011;66672;50.328;7.610;2023-08-20T09:02:39;21.00;;;15.60;;
77544;SDS011;66672;50.328;7.610;2023-08-20T09:05:05;19.50;;;15.05;;
77544;SDS011;66672;50.328;7.610;2023-08-20T09:07:30;21.17;;;15.25;;
77544;SDS011;66672;50.328;7.610;2023-08-20T09:09:58;20.65;;;14.95;;
77544;SDS011;66672;50.328;7.610;2023-08-20T09:12:27;21.23;;;16.52;;
77544;SDS011;66672;50.328;7.610;2023-08-20T09:14:52;20.00;;;15.18;;
77544;SDS011;66672;50.328;7.610;2023-08-20T09:17:19;23.42;;;15.82;;
77544;SDS011;66672;50.328;7.610;2023-08-20T09:19:45;19.55;;;15.55;;
77544;SDS011;66672;50.328;7.610;2023-08-20T09:22:14;18.52;;;14.98;;
77544;SDS011;66672;50.328;7.610;2023-08-20T09:24:41;17.80;;;14.80;;
77544;SDS011;66672;50.328;7.610;2023-08-20T09:27:09;20.25;;;15.30;;
77544;SDS011;66672;50.328;7.610;2023-08-20T09:29:44;20.20;;;15.80;;
77544;SDS011;66672;50.328;7.610;2023-08-20T09:32:13;20.15;;;14.57;;
77544;SDS011;66672;50.328;7.610;2023-08-20T09:34:38;19.35;;;15.18;;
77544;SDS011;66672;50.328;7.610;2023-08-20T09:37:07;24.10;;;19.85;;
77544;SDS011;66672;50.328;7.610;2023-08-20T09:39:32;22.15;;;17.50;;
77544;SDS011;66672;50.328;7.610;2023-08-20T09:41:57;17.48;;;14.43;;
77544;SDS011;66672;50.328;7.610;2023-08-20T09:44:24;18.65;;;13.95;;
77544;SDS011;66672;50.328;7.610;2023-08-20T09:46:50;17.88;;;13.77;;
77544;SDS011;66672;50.328;7.610;2023-08-20T09:49:16;19.63;;;14.52;;
77544;SDS011;66672;50.328;7.610;2023-08-20T09:51:42;20.67;;;15.55;;
77544;SDS011;66672;50.328;7.610;2023-08-20T09:56:34;19.42;;;16.17;;
77544;SDS011;66672;50.328;7.610;2023-08-20T09:59:03;20.27;;;16.20;;
77544;SDS011;66672;50.328;7.610;2023-08-20T10:01:29;17.98;;;13.75;;
77544;SDS011;66672;50.328;7.610;2023-08-20T10:03:55;18.98;;;15.68;;
77544;SDS011;66672;50.328;7.610;2023-08-20T10:06:21;16.05;;;13.27;;
77544;SDS011;66672;50.328;7.610;2023-08-20T10:08:46;16.60;;;12.88;;
77544;SDS011;66672;50.328;7.610;2023-08-20T10:11:14;19.80;;;15.73;;
77544;SDS011;66672;50.328;7.610;2023-08-20T10:13:39;19.50;;;14.33;;
77544;SDS011;66672;50.328;7.610;2023-08-20T10:16:04;19.83;;;13.95;;
77544;SDS011;66672;50.328;7.610;2023-08-20T10:18:30;17.25;;;13.73;;
77544;SDS011;66672;50.328;7.610;2023-08-20T10:20:57;17.17;;;13.07;;
77544;SDS011;66672;50.328;7.610;2023-08-20T10:23:22;18.23;;;14.40;;
77544;SDS011;66672;50.328;7.610;2023-08-20T10:25:53;13.90;;;11.32;;
77544;SDS011;66672;50.328;7.610;2023-08-20T10:28:24;16.48;;;12.90;;
77544;SDS011;66672;50.328;7.610;2023-08-20T10:31:02;16.55;;;13.65;;
77544;SDS011;66672;50.328;7.610;2023-08-20T10:33:28;15.40;;;12.35;;
77544;SDS011;66672;50.328;7.610;2023-08-20T10:35:53;13.23;;;11.82;;
77544;SDS011;66672;50.328;7.610;2023-08-20T10:38:18;14.40;;;11.90;;
77544;SDS011;66672;50.328;7.610;2023-08-20T10:43:19;15.02;;;11.13;;
77544;SDS011;66672;50.328;7.610;2023-08-20T10:45:48;13.25;;;10.30;;
77544;SDS011;66672;50.328;7.610;2023-08-20T10:48:26;13.63;;;11.05;;
77544;SDS011;66672;50.328;7.610;2023-08-20T10:50:51;12.80;;;11.00;;
77544;SDS011;66672;50.328;7.610;2023-08-20T10:53:17;13.65;;;9.95;;
77544;SDS011;66672;50.328;7.610;2023-08-20T10:55:47;11.20;;;9.48;;
77544;SDS011;66672;50.328;7.610;2023-08-20T10:58:13;13.35;;;10.38;;
77544;SDS011;66672;50.328;7.610;2023-08-20T11:00:38;11.73;;;9.10;;
77544;SDS011;66672;50.328;7.610;2023-08-20T11:03:03;13.02;;;10.32;;
77544;SDS011;66672;50.328;7.610;2023-08-20T11:05:28;11.85;;;9.73;;
77544;SDS011;66672;50.328;7.610;2023-08-20T11:07:54;12.43;;;9.93;;
77544;SDS011;66672;50.328;7.610;2023-08-20T11:10:19;12.98;;;9.43;;
77544;SDS011;66672;50.328;7.610;2023-08-20T11:12:47;12.88;;;9.50;;
77544;SDS011;66672;50.328;7.610;2023-08-20T11:15:12;11.23;;;9.45;;
77544;SDS011;66672;50.328;7.610;2023-08-20T11:17:41;11.90;;;9.35;;
77544;SDS011;66672;50.328;7.610;2023-08-20T11:20:07;8.27;;;6.80;;
77544;SDS011;66672;50.328;7.610;2023-08-20T11:22:33;8.63;;;6.57;;
77544;SDS011;66672;50.328;7.610;2023-08-20T11:24:59;9.70;;;5.53;;
77544;SDS011;66672;50.328;7.610;2023-08-20T11:27:26;8.98;;;6.07;;
77544;SDS011;66672;50.328;7.610;2023-08-20T11:29:52;8.18;;;5.68;;
77544;SDS011;66672;50.328;7.610;2023-08-20T11:32:18;8.18;;;5.88;;
77544;SDS011;66672;50.328;7.610;2023-08-20T11:34:44;9.02;;;6.22;;
77544;SDS011;66672;50.328;7.610;2023-08-20T11:37:09;8.25;;;6.00;;
77544;SDS011;66672;50.328;7.610;2023-08-20T11:39:36;9.32;;;6.10;;
77544;SDS011;66672;50.328;7.610;2023-08-20T11:42:01;8.77;;;5.75;;
77544;SDS011;66672;50.328;7.610;2023-08-20T11:44:26;8.02;;;6.60;;
77544;SDS011;66672;50.328;7.610;2023-08-20T11:46:52;8.63;;;6.57;;
77544;SDS011;66672;50.328;7.610;2023-08-20T11:49:17;7.80;;;6.55;;
77544;SDS011;66672;50.328;7.610;2023-08-20T11:51:43;9.00;;;6.28;;
77544;SDS011;66672;50.328;7.610;2023-08-20T11:54:11;8.70;;;6.53;;
77544;SDS011;66672;50.328;7.610;2023-08-20T11:56:42;8.60;;;6.15;;
77544;SDS011;66672;50.328;7.610;2023-08-20T11:59:08;7.85;;;5.97;;
77544;SDS011;66672;50.328;7.610;2023-08-20T12:01:35;7.38;;;5.40;;
77544;SDS011;66672;50.328;7.610;2023-08-20T12:04:01;9.47;;;6.00;;
77544;SDS011;66672;50.328;7.610;2023-08-20T12:06:28;8.45;;;6.28;;
77544;SDS011;66672;50.328;7.610;2023-08-20T12:08:55;9.13;;;6.40;;
77544;SDS011;66672;50.328;7.610;2023-08-20T12:11:23;7.90;;;5.75;;
77544;SDS011;66672;50.328;7.610;2023-08-20T12:13:48;8.63;;;6.20;;
77544;SDS011;66672;50.328;7.610;2023-08-20T12:16:13;7.40;;;5.90;;
77544;SDS011;66672;50.328;7.610;2023-08-20T12:18:39;7.57;;;6.07;;
77544;SDS011;66672;50.328;7.610;2023-08-20T12:21:04;7.95;;;5.60;;
77544;SDS011;66672;50.328;7.610;2023-08-20T12:23:29;9.10;;;5.50;;
77544;SDS011;66672;50.328;7.610;2023-08-20T12:25:54;6.90;;;5.53;;
77544;SDS011;66672;50.328;7.610;2023-08-20T12:28:19;8.50;;;5.53;;
77544;SDS011;66672;50.328;7.610;2023-08-20T12:30:45;7.45;;;5.32;;
77544;SDS011;66672;50.328;7.610;2023-08-20T12:33:11;8.95;;;5.78;;
77544;SDS011;66672;50.328;7.610;2023-08-20T12:35:36;9.13;;;5.20;;
77544;SDS011;66672;50.328;7.610;2023-08-20T12:38:01;7.45;;;5.47;;
77544;SDS011;66672;50.328;7.610;2023-08-20T12:40:27;6.17;;;4.70;;
77544;SDS011;66672;50.328;7.610;2023-08-20T12:42:53;7.20;;;4.78;;
77544;SDS011;66672;50.328;7.610;2023-08-20T12:45:18;8.00;;;5.00;;
77544;SDS011;66672;50.328;7.610;2023-08-20T12:47:43;6.95;;;4.93;;
77544;SDS011;66672;50.328;7.610;2023-08-20T12:50:08;7.70;;;4.57;;
77544;SDS011;66672;50.328;7.610;2023-08-20T12:52:34;6.95;;;4.63;;
77544;SDS011;66672;50.328;7.610;2023-08-20T12:54:59;7.57;;;4.20;;
77544;SDS011;66672;50.328;7.610;2023-08-20T12:57:24;7.85;;;4.00;;
77544;SDS011;66672;50.328;7.610;2023-08-20T12:59:49;8.48;;;4.82;;
77544;SDS011;66672;50.328;7.610;2023-08-20T13:02:15;7.30;;;4.57;;
77544;SDS011;66672;50.328;7.610;2023-08-20T13:04:40;6.88;;;4.93;;
77544;SDS011;66672;50.328;7.610;2023-08-20T13:07:06;7.00;;;4.07;;
77544;SDS011;66672;50.328;7.610;2023-08-20T13:09:31;5.78;;;4.30;;
77544;SDS011;66672;50.328;7.610;2023-08-20T13:11:56;6.95;;;4.55;;
77544;SDS011;66672;50.328;7.610;2023-08-20T13:14:22;7.00;;;4.13;;
77544;SDS011;66672;50.328;7.610;2023-08-20T13:16:47;5.70;;;4.68;;
77544;SDS011;66672;50.328;7.610;2023-08-20T13:19:13;8.15;;;6.10;;
77544;SDS011;66672;50.328;7.610;2023-08-20T13:21:38;9.07;;;5.38;;
77544;SDS011;66672;50.328;7.610;2023-08-20T13:24:03;7.67;;;5.63;;
77544;SDS011;66672;50.328;7.610;2023-08-20T13:26:29;8.05;;;5.38;;
77544;SDS011;66672;50.328;7.610;2023-08-20T13:28:54;8.77;;;5.63;;
77544;SDS011;66672;50.328;7.610;2023-08-20T13:31:19;8.03;;;5.30;;
77544;SDS011;66672;50.328;7.610;2023-08-20T13:33:44;7.63;;;5.53;;
77544;SDS011;66672;50.328;7.610;2023-08-20T13:36:10;7.28;;;5.22;;
77544;SDS011;66672;50.328;7.610;2023-08-20T13:38:35;8.60;;;5.40;;
77544;SDS011;66672;50.328;7.610;2023-08-20T13:41:00;8.30;;;5.77;;
77544;SDS011;66672;50.328;7.610;2023-08-20T13:43:26;8.32;;;4.70;;
77544;SDS011;66672;50.328;7.610;2023-08-20T13:45:51;7.60;;;4.57;;
77544;SDS011;66672;50.328;7.610;2023-08-20T13:48:16;6.83;;;4.50;;
77544;SDS011;66672;50.328;7.610;2023-08-20T13:50:41;6.67;;;4.67;;
77544;SDS011;66672;50.328;7.610;2023-08-20T13:53:07;6.20;;;4.63;;
77544;SDS011;66672;50.328;7.610;2023-08-20T13:55:32;7.57;;;4.67;;
77544;SDS011;66672;50.328;7.610;2023-08-20T13:57:57;6.55;;;4.45;;
77544;SDS011;66672;50.328;7.610;2023-08-20T14:00:23;6.27;;;4.43;;
77544;SDS011;66672;50.328;7.610;2023-08-20T14:02:48;7.30;;;4.18;;
77544;SDS011;66672;50.328;7.610;2023-08-20T14:05:13;5.53;;;4.17;;
77544;SDS011;66672;50.328;7.610;2023-08-20T14:07:38;6.20;;;4.30;;
77544;SDS011;66672;50.328;7.610;2023-08-20T14:10:03;6.35;;;4.35;;
77544;SDS011;66672;50.328;7.610;2023-08-20T14:12:29;6.07;;;4.40;;
77544;SDS011;66672;50.328;7.610;2023-08-20T14:14:55;7.30;;;4.60;;
77544;SDS011;66672;50.328;7.610;2023-08-20T14:17:20;5.82;;;4.22;;
77544;SDS011;66672;50.328;7.610;2023-08-20T14:19:45;5.20;;;4.07;;
77544;SDS011;66672;50.328;7.610;2023-08-20T14:22:10;7.47;;;4.50;;
77544;SDS011;66672;50.328;7.610;2023-08-20T14:24:35;6.07;;;4.50;;
77544;SDS011;66672;50.328;7.610;2023-08-20T14:27:00;6.93;;;4.40;;
77544;SDS011;66672;50.328;7.610;2023-08-20T14:29:26;8.40;;;4.73;;
77544;SDS011;66672;50.328;7.610;2023-08-20T14:31:51;6.82;;;4.47;;
77544;SDS011;66672;50.328;7.610;2023-08-20T14:34:16;8.43;;;4.57;;